createdAt,value
2018-11-04T00:02:06.113Z,26.68
2018-11-04T00:04:34.436Z,31.87
2018-11-04T00:07:02.752Z,32.48
2018-11-04T00:09:31.078Z,28.80
2018-11-04T00:11:59.385Z,27.87
2018-11-04T00:14:27.730Z,31.15
2018-11-04T00:16:56.076Z,38.95
2018-11-04T00:19:25.145Z,30.88
2018-11-04T00:21:53.492Z,29.67
2018-11-04T00:24:21.803Z,32.13
2018-11-04T00:26:50.149Z,27.40
2018-11-04T00:29:18.500Z,23.90
2018-11-04T00:31:46.808Z,21.27
2018-11-04T00:34:15.252Z,26.05
2018-11-04T00:36:43.816Z,29.63
2018-11-04T00:39:12.119Z,23.95
2018-11-04T00:41:40.426Z,21.15
2018-11-04T00:44:08.696Z,30.05
2018-11-04T00:46:37.025Z,26.42
2018-11-04T00:49:05.724Z,24.60
2018-11-04T00:51:34.422Z,27.30
2018-11-04T00:54:02.749Z,24.82
2018-11-04T00:56:31.053Z,31.35
2018-11-04T00:58:59.332Z,25.82
2018-11-04T01:01:27.759Z,30.77
2018-11-04T01:03:56.039Z,25.05
2018-11-04T01:06:24.358Z,20.30
2018-11-04T01:08:52.687Z,27.85
2018-11-04T01:11:21.002Z,25.32
2018-11-04T01:13:49.956Z,26.87
2018-11-04T01:16:18.265Z,24.37
2018-11-04T01:18:46.593Z,24.70
2018-11-04T01:21:15.367Z,28.00
2018-11-04T01:23:43.618Z,28.10
2018-11-04T01:26:11.934Z,27.02
2018-11-04T01:28:40.244Z,28.30
2018-11-04T01:31:08.530Z,27.80
2018-11-04T01:33:37.565Z,31.70
2018-11-04T01:36:05.937Z,37.55
2018-11-04T01:38:34.265Z,23.45
2018-11-04T01:41:03.540Z,25.30
2018-11-04T01:43:31.874Z,25.72
2018-11-04T01:46:00.173Z,22.80
2018-11-04T01:48:28.485Z,22.13
2018-11-04T01:50:56.858Z,28.17
2018-11-04T01:53:25.157Z,36.93
2018-11-04T01:55:53.495Z,29.82
2018-11-04T01:58:21.826Z,23.22
2018-11-04T02:00:50.143Z,29.82
2018-11-04T02:03:18.449Z,21.55
2018-11-04T02:05:46.772Z,25.55
2018-11-04T02:08:15.117Z,28.12
2018-11-04T02:10:43.440Z,28.98
2018-11-04T02:13:11.749Z,28.47
2018-11-04T02:15:40.097Z,31.17
2018-11-04T02:18:08.391Z,26.35
2018-11-04T02:20:36.755Z,31.05
2018-11-04T02:23:05.171Z,22.25
2018-11-04T02:25:33.520Z,28.45
2018-11-04T02:28:01.860Z,28.52
2018-11-04T02:30:30.166Z,22.65
2018-11-04T02:32:58.509Z,24.27
2018-11-04T02:35:26.813Z,30.08
2018-11-04T02:37:55.109Z,22.73
2018-11-04T02:40:23.428Z,25.12
2018-11-04T02:42:51.758Z,25.00
2018-11-04T02:45:20.792Z,30.35
2018-11-04T02:47:49.100Z,23.77
2018-11-04T02:50:17.425Z,31.65
2018-11-04T02:52:45.725Z,22.82
2018-11-04T02:55:14.066Z,21.57
2018-11-04T02:57:42.405Z,24.55
2018-11-04T03:00:12.874Z,31.10
2018-11-04T03:02:41.549Z,25.43
2018-11-04T03:05:10.632Z,20.85
2018-11-04T03:07:39.308Z,25.02
2018-11-04T03:10:08.252Z,27.35
2018-11-04T03:12:36.561Z,22.60
2018-11-04T03:15:04.994Z,24.65
2018-11-04T03:17:33.293Z,28.67
2018-11-04T03:20:02.277Z,27.58
2018-11-04T03:22:31.347Z,26.37
2018-11-04T03:24:59.814Z,30.97
2018-11-04T03:27:28.285Z,27.17
2018-11-04T03:29:56.578Z,23.47
2018-11-04T03:32:24.942Z,21.35
2018-11-04T03:34:53.251Z,24.63
2018-11-04T03:37:21.801Z,24.12
2018-11-04T03:39:50.584Z,25.08
2018-11-04T03:42:19.638Z,21.60
2018-11-04T03:44:47.993Z,22.90
2018-11-04T03:47:16.295Z,22.10
2018-11-04T03:49:44.598Z,20.27
2018-11-04T03:52:12.911Z,25.43
2018-11-04T03:54:41.246Z,22.52
2018-11-04T03:57:09.565Z,23.05
2018-11-04T03:59:38.644Z,25.70
2018-11-04T04:02:07.232Z,21.20
2018-11-04T04:04:35.546Z,20.72
2018-11-04T04:07:03.887Z,26.02
2018-11-04T04:09:32.842Z,29.32
2018-11-04T04:12:01.149Z,29.98
2018-11-04T04:14:30.206Z,23.65
2018-11-04T04:16:58.518Z,22.65
2018-11-04T04:19:26.824Z,28.70
2018-11-04T04:21:55.185Z,22.90
2018-11-04T04:24:24.029Z,20.32
2018-11-04T04:26:52.338Z,26.48
2018-11-04T04:29:20.658Z,20.08
2018-11-04T04:31:48.973Z,25.30
2018-11-04T04:34:17.315Z,25.35
2018-11-04T04:36:45.661Z,26.95
2018-11-04T04:39:14.001Z,25.43
2018-11-04T04:41:42.296Z,27.70
2018-11-04T04:44:10.612Z,30.25
2018-11-04T04:46:39.738Z,31.17
2018-11-04T04:49:08.039Z,25.80
2018-11-04T04:51:36.364Z,27.50
2018-11-04T04:54:05.021Z,28.98
2018-11-04T04:56:33.324Z,30.92
2018-11-04T04:59:01.625Z,29.70
2018-11-04T05:01:29.947Z,29.15
2018-11-04T05:03:58.262Z,24.25
2018-11-04T05:06:26.897Z,28.77
2018-11-04T05:08:55.220Z,30.00
2018-11-04T05:11:23.637Z,24.77
2018-11-04T05:13:52.289Z,25.60
2018-11-04T05:16:20.597Z,21.50
2018-11-04T05:18:48.923Z,26.20
2018-11-04T05:21:17.305Z,20.45
2018-11-04T05:23:45.622Z,27.17
2018-11-04T05:26:13.941Z,27.32
2018-11-04T05:28:42.232Z,23.32
2018-11-04T05:31:10.542Z,24.75
2018-11-04T05:33:38.853Z,27.40
2018-11-04T05:36:07.181Z,29.12
2018-11-04T05:38:35.466Z,22.70
2018-11-04T05:41:03.804Z,23.10
2018-11-04T05:43:32.112Z,39.40
2018-11-04T05:46:00.438Z,30.77
2018-11-04T05:48:28.768Z,31.70
2018-11-04T05:50:57.084Z,25.27
2018-11-04T05:53:25.366Z,28.65
2018-11-04T05:55:53.685Z,23.87
2018-11-04T05:58:21.980Z,24.77
2018-11-04T06:00:50.310Z,23.10
2018-11-04T06:03:18.608Z,24.70
2018-11-04T06:05:46.902Z,23.45
2018-11-04T06:08:15.233Z,25.20
2018-11-04T06:10:43.545Z,25.25
2018-11-04T06:13:11.861Z,17.82
2018-11-04T06:15:40.197Z,23.32
2018-11-04T06:18:08.492Z,25.85
2018-11-04T06:20:36.833Z,32.90
2018-11-04T06:23:05.258Z,26.33
2018-11-04T06:25:33.589Z,27.60
2018-11-04T06:28:01.885Z,26.10
2018-11-04T06:30:30.177Z,23.52
2018-11-04T06:32:58.521Z,29.18
2018-11-04T06:35:26.816Z,30.50
2018-11-04T06:37:55.128Z,30.00
2018-11-04T06:40:23.446Z,31.33
2018-11-04T06:42:51.732Z,44.18
2018-11-04T06:45:20.072Z,26.20
2018-11-04T06:47:48.386Z,38.20
2018-11-04T06:50:16.714Z,28.55
2018-11-04T06:52:45.011Z,24.25
2018-11-04T06:55:13.323Z,30.40
2018-11-04T06:57:41.650Z,29.32
2018-11-04T07:00:11.261Z,31.00
2018-11-04T07:02:39.840Z,33.50
2018-11-04T07:05:08.197Z,29.63
2018-11-04T07:07:37.479Z,32.98
2018-11-04T07:10:08.062Z,30.57
2018-11-04T07:12:36.921Z,31.60
2018-11-04T07:15:05.765Z,34.08
2018-11-04T07:17:34.264Z,33.90
2018-11-04T07:20:04.048Z,31.57
2018-11-04T07:22:32.410Z,29.23
2018-11-04T07:25:00.963Z,30.00
2018-11-04T07:27:29.269Z,30.97
2018-11-04T07:29:58.616Z,33.58
2018-11-04T07:32:27.004Z,52.20
2018-11-04T07:34:55.320Z,42.65
2018-11-04T07:37:24.658Z,81.80
2018-11-04T07:39:52.967Z,44.55
2018-11-04T07:42:22.335Z,40.50
2018-11-04T07:44:50.835Z,34.58
2018-11-04T07:47:19.400Z,37.23
2018-11-04T07:49:47.901Z,33.00
2018-11-04T07:52:16.206Z,34.92
2018-11-04T07:54:45.213Z,35.17
2018-11-04T07:57:13.680Z,40.23
2018-11-04T07:59:42.255Z,39.55
2018-11-04T08:02:10.656Z,35.58
2018-11-04T08:04:39.182Z,37.88
2018-11-04T08:07:07.560Z,24.72
2018-11-04T08:09:36.169Z,38.98
2018-11-04T08:12:04.818Z,36.28
2018-11-04T08:14:33.197Z,33.13
2018-11-04T08:17:01.557Z,37.35
2018-11-04T08:19:29.940Z,36.20
2018-11-04T08:21:58.300Z,34.92
2018-11-04T08:24:27.538Z,41.18
2018-11-04T08:26:56.504Z,39.13
2018-11-04T08:29:24.801Z,35.15
2018-11-04T08:31:53.116Z,39.45
2018-11-04T08:34:21.404Z,32.38
2018-11-04T08:36:49.721Z,31.25
2018-11-04T08:39:18.076Z,37.53
2018-11-04T08:41:46.504Z,38.45
2018-11-04T08:44:14.857Z,38.20
2018-11-04T08:46:43.204Z,35.80
2018-11-04T08:49:11.521Z,31.52
2018-11-04T08:51:39.843Z,35.28
2018-11-04T08:54:08.700Z,37.60
2018-11-04T08:56:37.848Z,32.33
2018-11-04T08:59:07.002Z,44.23
2018-11-04T09:01:35.334Z,34.20
2018-11-04T09:04:03.689Z,35.58
2018-11-04T09:06:32.073Z,35.03
2018-11-04T09:09:00.450Z,43.25
2018-11-04T09:11:29.029Z,35.03
2018-11-04T09:13:57.865Z,40.98
2018-11-04T09:16:26.203Z,41.68
2018-11-04T09:18:54.577Z,37.28
2018-11-04T09:21:22.936Z,30.05
2018-11-04T09:23:51.274Z,34.05
2018-11-04T09:26:19.605Z,37.33
2018-11-04T09:28:47.969Z,38.73
2018-11-04T09:31:16.305Z,34.63
2018-11-04T09:33:44.673Z,34.65
2018-11-04T09:36:13.152Z,36.40
2018-11-04T09:38:41.333Z,33.85
2018-11-04T09:41:09.666Z,35.40
2018-11-04T09:43:38.004Z,39.23
2018-11-04T09:46:06.365Z,41.77
2018-11-04T09:48:34.810Z,43.48
2018-11-04T09:51:03.403Z,37.38
2018-11-04T09:53:31.938Z,37.05
2018-11-04T09:56:00.324Z,35.58
2018-11-04T09:58:28.833Z,35.15
2018-11-04T10:00:57.170Z,33.55
2018-11-04T10:03:26.293Z,33.63
2018-11-04T10:05:54.825Z,33.05
2018-11-04T10:08:23.412Z,37.85
2018-11-04T10:10:53.053Z,33.70
2018-11-04T10:13:21.649Z,36.10
2018-11-04T10:15:50.561Z,34.73
2018-11-04T10:18:18.986Z,38.45
2018-11-04T10:20:48.160Z,36.42
2018-11-04T10:23:16.137Z,32.13
2018-11-04T10:25:44.453Z,35.17
2018-11-04T10:28:12.802Z,39.17
2018-11-04T10:30:41.209Z,40.45
2018-11-04T10:33:09.545Z,41.70
2018-11-04T10:35:37.921Z,39.93
2018-11-04T10:38:07.482Z,46.13
2018-11-04T10:40:36.364Z,36.97
2018-11-04T10:43:05.075Z,37.57
2018-11-04T10:45:35.691Z,38.17
2018-11-04T10:48:05.241Z,35.13
2018-11-04T10:50:33.606Z,38.07
2018-11-04T10:53:01.955Z,36.70
2018-11-04T10:55:30.737Z,32.93
2018-11-04T10:57:59.077Z,39.07
2018-11-04T11:00:34.145Z,33.93
2018-11-04T11:03:02.531Z,37.10
2018-11-04T11:05:30.922Z,35.97
2018-11-04T11:07:59.400Z,33.67
2018-11-04T11:10:27.756Z,33.33
2018-11-04T11:12:56.109Z,37.27
2018-11-04T11:15:24.433Z,38.20
2018-11-04T11:17:52.733Z,32.70
2018-11-04T11:20:21.077Z,39.30
2018-11-04T11:22:49.435Z,35.77
2018-11-04T11:25:17.765Z,35.80
2018-11-04T11:27:46.254Z,33.93
2018-11-04T11:30:14.711Z,38.80
2018-11-04T11:32:42.990Z,42.27
2018-11-04T11:35:11.305Z,39.17
2018-11-04T11:37:39.834Z,33.73
2018-11-04T11:40:09.724Z,30.53
2018-11-04T11:42:38.314Z,37.37
2018-11-04T11:45:07.315Z,37.40
2018-11-04T11:47:35.768Z,32.83
2018-11-04T11:50:04.851Z,34.30
2018-11-04T11:52:34.485Z,33.10
2018-11-04T11:55:02.891Z,36.37
2018-11-04T11:57:31.362Z,34.07
2018-11-04T12:00:01.320Z,32.53
2018-11-04T12:02:30.190Z,37.90
2018-11-04T12:04:58.620Z,38.23
2018-11-04T12:07:26.943Z,42.73
2018-11-04T12:09:55.954Z,38.17
2018-11-04T12:12:24.316Z,37.60
2018-11-04T12:14:52.669Z,35.00
2018-11-04T12:17:22.174Z,37.80
2018-11-04T12:19:51.636Z,43.33
2018-11-04T12:22:20.209Z,33.67
2018-11-04T12:24:48.628Z,35.10
2018-11-04T12:27:16.945Z,30.57
2018-11-04T12:29:45.326Z,57.63
2018-11-04T12:32:13.662Z,36.33
2018-11-04T12:34:42.171Z,36.40
2018-11-04T12:37:10.546Z,35.37
2018-11-04T12:39:38.854Z,29.33
2018-11-04T12:42:07.193Z,33.77
2018-11-04T12:44:35.489Z,33.80
2018-11-04T12:47:03.865Z,34.60
2018-11-04T12:49:32.168Z,38.23
2018-11-04T12:52:00.566Z,30.40
2018-11-04T12:54:28.954Z,34.10
2018-11-04T12:56:57.301Z,33.73
2018-11-04T12:59:25.605Z,31.10
2018-11-04T13:01:53.967Z,38.67
2018-11-04T13:04:22.283Z,30.50
2018-11-04T13:06:50.624Z,35.00
2018-11-04T13:09:18.915Z,34.00
2018-11-04T13:11:47.261Z,35.63
2018-11-04T13:14:15.585Z,39.10
2018-11-04T13:16:44.567Z,33.43
2018-11-04T13:19:12.893Z,33.90
2018-11-04T13:21:41.330Z,35.93
2018-11-04T13:24:09.696Z,37.33
2018-11-04T13:26:38.005Z,40.03
2018-11-04T13:29:06.374Z,36.97
2018-11-04T13:31:34.731Z,34.70
2018-11-04T13:34:03.093Z,32.87
2018-11-04T13:36:31.410Z,35.60
2018-11-04T13:38:59.758Z,37.27
2018-11-04T13:41:28.089Z,33.83
2018-11-04T13:43:57.792Z,34.63
2018-11-04T13:46:26.135Z,36.33
2018-11-04T13:48:54.453Z,36.93
2018-11-04T13:51:22.805Z,38.40
2018-11-04T13:53:51.113Z,32.70
2018-11-04T13:56:21.198Z,31.80
2018-11-04T13:58:50.164Z,29.60
2018-11-04T14:01:18.512Z,31.17
2018-11-04T14:03:46.862Z,31.40
2018-11-04T14:06:15.208Z,33.80
2018-11-04T14:08:43.816Z,24.83
2018-11-04T14:11:12.191Z,31.13
2018-11-04T14:13:40.766Z,27.23
2018-11-04T14:16:09.217Z,25.77
2018-11-04T14:18:37.711Z,26.97
2018-11-04T14:21:06.810Z,28.43
2018-11-04T14:23:35.411Z,23.80
2018-11-04T14:26:03.745Z,28.53
2018-11-04T14:28:32.080Z,29.33
2018-11-04T14:31:00.453Z,30.90
2018-11-04T14:33:28.719Z,34.97
2018-11-04T14:35:57.038Z,29.33
2018-11-04T14:38:25.345Z,30.40
2018-11-04T14:40:53.673Z,26.50
2018-11-04T14:43:22.059Z,36.13
2018-11-04T14:45:51.239Z,31.80
2018-11-04T14:48:19.697Z,28.20
2018-11-04T14:50:48.069Z,27.47
2018-11-04T14:53:16.421Z,33.47
2018-11-04T14:55:44.785Z,33.70
2018-11-04T14:58:13.089Z,35.80
2018-11-04T15:00:42.097Z,35.93
2018-11-04T15:03:10.530Z,29.67
2018-11-04T15:05:38.861Z,32.27
2018-11-04T15:08:07.238Z,37.67
2018-11-04T15:10:35.564Z,33.90
2018-11-04T15:13:03.898Z,31.67
2018-11-04T15:15:32.287Z,38.07
2018-11-04T15:18:00.624Z,48.33
2018-11-04T15:20:28.976Z,42.17
2018-11-04T15:22:57.307Z,39.13
2018-11-04T15:25:25.649Z,39.77
2018-11-04T15:27:53.997Z,39.27
2018-11-04T15:30:22.329Z,38.93
2018-11-04T15:32:50.694Z,38.70
2018-11-04T15:35:19.050Z,43.83
2018-11-04T15:37:47.383Z,41.77
2018-11-04T15:40:16.526Z,47.17
2018-11-04T15:42:44.853Z,42.13
2018-11-04T15:45:14.226Z,40.37
2018-11-04T15:47:42.735Z,38.53
2018-11-04T15:50:13.081Z,38.27
2018-11-04T15:52:41.490Z,39.43
2018-11-04T15:55:10.101Z,43.90
2018-11-04T15:57:38.420Z,42.57
2018-11-04T16:00:09.421Z,46.60
2018-11-04T16:02:37.779Z,43.63
2018-11-04T16:05:06.459Z,49.53
2018-11-04T16:07:34.858Z,47.80
2018-11-04T16:10:03.627Z,46.17
2018-11-04T16:12:32.083Z,51.83
2018-11-04T16:15:00.475Z,50.60
2018-11-04T16:17:28.816Z,46.60
2018-11-04T16:19:57.303Z,48.13
2018-11-04T16:22:25.616Z,47.37
2018-11-04T16:24:54.061Z,45.67
2018-11-04T16:27:22.543Z,42.83
2018-11-04T16:29:51.441Z,47.63
2018-11-04T16:32:19.752Z,47.63
2018-11-04T16:34:49.109Z,49.63
2018-11-04T16:37:17.672Z,43.03
2018-11-04T16:39:46.352Z,44.93
2018-11-04T16:42:14.681Z,44.70
2018-11-04T16:44:44.509Z,43.70
2018-11-04T16:47:13.889Z,45.33
2018-11-04T16:49:42.858Z,48.87
2018-11-04T16:52:11.174Z,41.83
2018-11-04T16:54:39.488Z,46.27
2018-11-04T16:57:10.340Z,44.23
2018-11-04T16:59:39.135Z,41.20
2018-11-04T17:02:07.896Z,43.87
2018-11-04T17:04:36.438Z,47.20
2018-11-04T17:07:05.857Z,39.80
2018-11-04T17:09:36.014Z,43.87
2018-11-04T17:12:05.470Z,41.77
2018-11-04T17:14:35.041Z,57.15
2018-11-04T17:17:04.366Z,59.13
2018-11-04T17:19:34.746Z,63.65
2018-11-04T17:22:04.068Z,50.03
2018-11-04T17:24:34.196Z,48.48
2018-11-04T17:27:04.696Z,43.15
2018-11-04T17:29:34.040Z,44.30
2018-11-04T17:32:04.859Z,41.00
2018-11-04T17:34:34.657Z,46.23
2018-11-04T17:37:03.027Z,44.05
2018-11-04T17:39:31.398Z,43.73
2018-11-04T17:41:59.658Z,51.00
2018-11-04T17:44:28.056Z,41.33
2018-11-04T17:46:56.493Z,41.35
2018-11-04T17:49:25.007Z,42.88
2018-11-04T17:51:53.389Z,41.05
2018-11-04T17:54:21.705Z,42.78
2018-11-04T17:56:50.034Z,41.95
2018-11-04T17:59:18.369Z,42.85
2018-11-04T18:01:46.688Z,34.85
2018-11-04T18:04:15.069Z,43.75
2018-11-04T18:06:43.592Z,38.67
2018-11-04T18:09:12.084Z,40.43
2018-11-04T18:11:40.494Z,39.67
2018-11-04T18:14:08.821Z,39.35
2018-11-04T18:16:37.251Z,39.55
2018-11-04T18:19:05.701Z,45.95
2018-11-04T18:21:34.226Z,37.80
2018-11-04T18:24:02.566Z,33.92
2018-11-04T18:26:30.986Z,31.57
2018-11-04T18:28:59.188Z,38.58
2018-11-04T18:31:27.497Z,41.50
2018-11-04T18:33:56.121Z,58.95
2018-11-04T18:36:24.417Z,47.30
2018-11-04T18:38:52.752Z,49.13
2018-11-04T18:41:21.068Z,41.55
2018-11-04T18:43:49.603Z,42.03
2018-11-04T18:46:17.763Z,39.55
2018-11-04T18:48:46.146Z,36.05
2018-11-04T18:51:14.601Z,42.85
2018-11-04T18:53:42.933Z,42.67
2018-11-04T18:56:11.255Z,34.27
2018-11-04T18:58:39.580Z,39.55
2018-11-04T19:01:07.897Z,41.80
2018-11-04T19:03:36.300Z,34.05
2018-11-04T19:06:04.647Z,38.98
2018-11-04T19:08:33.100Z,37.05
2018-11-04T19:11:01.494Z,42.95
2018-11-04T19:13:29.801Z,37.80
2018-11-04T19:15:58.532Z,38.10
2018-11-04T19:18:28.094Z,35.70
2018-11-04T19:20:56.462Z,31.82
2018-11-04T19:23:26.037Z,38.38
2018-11-04T19:25:54.426Z,53.20
2018-11-04T19:28:23.675Z,33.98
2018-11-04T19:30:52.018Z,34.10
2018-11-04T19:33:21.081Z,47.23
2018-11-04T19:35:49.768Z,36.63
2018-11-04T19:38:19.105Z,44.30
2018-11-04T19:40:47.434Z,35.63
2018-11-04T19:43:18.331Z,36.40
2018-11-04T19:45:46.693Z,45.08
2018-11-04T19:48:16.465Z,36.48
2018-11-04T19:50:44.831Z,40.15
2018-11-04T19:53:13.780Z,37.73
2018-11-04T19:55:42.093Z,43.42
2018-11-04T19:58:10.497Z,45.90
2018-11-04T20:00:39.954Z,46.88
2018-11-04T20:03:08.697Z,35.45
2018-11-04T20:05:37.747Z,36.38
2018-11-04T20:08:06.467Z,29.63
2018-11-04T20:10:34.850Z,34.48
2018-11-04T20:13:08.579Z,29.75
2018-11-04T20:15:37.041Z,34.73
2018-11-04T20:18:11.149Z,28.30
2018-11-04T20:20:39.494Z,30.48
2018-11-04T20:23:08.296Z,31.50
2018-11-04T20:25:41.969Z,40.10
2018-11-04T20:28:10.944Z,36.55
2018-11-04T20:30:39.238Z,30.88
2018-11-04T20:33:09.677Z,35.78
2018-11-04T20:35:37.980Z,29.45
2018-11-04T20:38:06.525Z,29.95
2018-11-04T20:40:40.571Z,33.18
2018-11-04T20:43:08.946Z,31.60
2018-11-04T20:45:38.461Z,26.10
2018-11-04T20:48:12.451Z,27.52
2018-11-04T20:50:46.597Z,25.80
2018-11-04T20:53:31.212Z,28.00
2018-11-04T20:56:04.761Z,29.77
2018-11-04T20:58:34.115Z,26.77
2018-11-04T21:01:04.540Z,24.27
2018-11-04T21:03:32.939Z,25.85
2018-11-04T21:06:01.880Z,28.07
2018-11-04T21:08:31.376Z,28.95
2018-11-04T21:10:59.729Z,26.48
2018-11-04T21:13:28.595Z,26.97
2018-11-04T21:15:57.831Z,30.50
2018-11-04T21:18:26.448Z,26.02
2018-11-04T21:20:56.978Z,24.67
2018-11-04T21:23:25.423Z,29.55
2018-11-04T21:25:53.800Z,27.22
2018-11-04T21:28:22.183Z,24.65
2018-11-04T21:30:51.749Z,23.83
2018-11-04T21:33:20.075Z,24.50
2018-11-04T21:35:48.404Z,23.80
2018-11-04T21:38:16.722Z,28.77
2018-11-04T21:40:45.065Z,25.60
2018-11-04T21:43:13.625Z,23.00
2018-11-04T21:45:41.852Z,23.10
2018-11-04T21:48:10.232Z,25.80
2018-11-04T21:50:38.560Z,27.90
2018-11-04T21:53:07.876Z,26.07
2018-11-04T21:55:36.506Z,24.10
2018-11-04T21:58:08.801Z,22.42
2018-11-04T22:00:37.116Z,23.15
2018-11-04T22:03:05.630Z,22.73
2018-11-04T22:05:35.002Z,27.42
2018-11-04T22:08:03.324Z,24.52
2018-11-04T22:10:31.725Z,22.75
2018-11-04T22:12:59.960Z,38.83
2018-11-04T22:15:28.325Z,28.15
2018-11-04T22:17:56.677Z,24.23
2018-11-04T22:20:25.069Z,21.70
2018-11-04T22:22:53.503Z,26.10
2018-11-04T22:25:21.800Z,26.35
2018-11-04T22:27:50.173Z,23.92
2018-11-04T22:30:18.497Z,25.75
2018-11-04T22:32:46.864Z,24.75
2018-11-04T22:35:15.221Z,25.90
2018-11-04T22:37:43.545Z,25.37
2018-11-04T22:40:12.381Z,26.12
2018-11-04T22:42:41.547Z,26.00
2018-11-04T22:45:10.985Z,24.70
2018-11-04T22:47:39.777Z,26.30
2018-11-04T22:50:12.989Z,21.77
2018-11-04T22:52:41.963Z,26.70
2018-11-04T22:55:10.993Z,24.77
2018-11-04T22:57:39.370Z,24.57
2018-11-04T23:00:13.798Z,30.30
2018-11-04T23:02:42.217Z,25.05
2018-11-04T23:05:15.807Z,23.47
2018-11-04T23:07:44.453Z,23.83
2018-11-04T23:10:13.325Z,21.95
2018-11-04T23:12:41.669Z,29.52
2018-11-04T23:15:09.970Z,32.45
2018-11-04T23:17:38.357Z,25.52
2018-11-04T23:20:07.430Z,27.65
2018-11-04T23:22:35.953Z,27.55
2018-11-04T23:25:04.590Z,27.37
2018-11-04T23:27:32.916Z,30.85
2018-11-04T23:30:01.784Z,24.40
2018-11-04T23:32:30.104Z,36.70
2018-11-04T23:34:59.394Z,25.32
2018-11-04T23:37:27.707Z,26.62
2018-11-04T23:39:56.009Z,22.13
2018-11-04T23:42:24.369Z,22.77
2018-11-04T23:44:52.679Z,24.55
2018-11-04T23:47:21.021Z,22.00
2018-11-04T23:49:49.458Z,21.82
2018-11-04T23:52:17.764Z,25.37
2018-11-04T23:54:46.353Z,28.00
2018-11-04T23:57:14.660Z,21.68
2018-11-04T23:59:43.010Z,17.85
